Gladbrook, Iowa
Current Conditions -  °F | °C
As of 11:53 PM on Tuesday 25 Nov 2014 (Local Time) from KMIW Reporting Station
Overcast Overcast  
Wind Chill: 14°   Ceiling: 9000
Heat Index: 26°   Visibility: 10mi
Dew Point: 19°   Wind: 14mph
Humidity: 75%   Direction: 130°SE
Pressure: 30.01"   Gusts: NA
Location:  42.19°N, 92.72°W
Report Text: KMIW 260553Z AUTO 13012KT 10SM OVC090 M03/M07 A3001 RMK AO2 SLP174 T10331072 11033 21072 410171117 58012
Loading
Personal Weather Stations






























Interactive Weather Map New forecast layout! Learn more

10-Day Weather Forecast

Advertisements
Track Severe Weather on mobile